Time;durP1;ratioP1;P1;durP2;ratioP2;P2;SDS_P1;SDS_P2;PMS_P1;PMS_P2;Temp;Humidity;BMP_temperature;BMP_pressure;BME280_temperature;BME280_humidity;BME280_pressure;Samples;Min_cycle;Max_cycle;Signal;HPM_P1;HPM_P2
2023/07/13 00:01:12;;;;;;;;;;;25.90;99.90;;;;;;5095371;28;19930;-80
2023/07/13 00:03:40;;;;;;;;;;;25.90;99.90;;;;;;5114458;28;19904;-80
2023/07/13 00:06:07;;;;;;;;;;;25.90;99.90;;;;;;5114398;28;19903;-81
2023/07/13 00:08:32;;;;;;;;;;;25.90;99.90;;;;;;5113541;28;19904;-79
2023/07/13 00:10:59;;;;;;;;;;;25.90;99.90;;;;;;5114138;28;19904;-80
2023/07/13 00:13:24;;;;;;;;;;;25.90;99.90;;;;;;5114392;28;20406;-80
2023/07/13 00:15:50;;;;;;;;;;;26.00;99.90;;;;;;5113695;28;19904;-80
2023/07/13 00:18:16;;;;;;;;;;;26.00;99.90;;;;;;5114330;28;19904;-81
2023/07/13 00:20:43;;;;;;;;;;;26.00;99.90;;;;;;5113890;28;19910;-80
2023/07/13 00:23:08;;;;;;;;;;;26.00;99.90;;;;;;5113872;28;19904;-81
2023/07/13 00:25:35;;;;;;;;;;;26.00;99.90;;;;;;5113987;28;19911;-80
2023/07/13 00:28:00;;;;;;;;;;;26.10;99.90;;;;;;5095599;28;20343;-81
2023/07/13 00:30:26;;;;;;;;;;;26.10;99.90;;;;;;5113876;28;20033;-80
2023/07/13 00:32:52;;;;;;;;;;;26.00;99.90;;;;;;5113648;28;19904;-80
2023/07/13 00:35:19;;;;;;;;;;;26.00;99.90;;;;;;5114319;28;20255;-81
2023/07/13 00:37:45;;;;;;;;;;;26.10;99.90;;;;;;5113622;28;19903;-81
2023/07/13 00:40:14;;;;;;;;;;;26.00;99.90;;;;;;5113922;28;19911;-81
2023/07/13 00:42:41;;;;;;;;;;;26.10;99.90;;;;;;5113611;28;19910;-81
2023/07/13 00:45:12;;;;;;;;;;;26.10;99.90;;;;;;5113434;28;19910;-81
2023/07/13 00:47:39;;;;;;;;;;;26.10;99.90;;;;;;5113618;28;20363;-81
2023/07/13 00:50:07;;;;;;;;;;;26.10;99.90;;;;;;5113497;28;19904;-82
2023/07/13 00:52:35;;;;;;;;;;;26.00;99.90;;;;;;5095098;28;19903;-81
2023/07/13 00:55:01;;;;;;;;;;;26.00;99.90;;;;;;5113954;28;19912;-80
2023/07/13 00:57:27;;;;;;;;;;;26.00;99.90;;;;;;5113507;28;19957;-81
2023/07/13 00:59:55;;;;;;;;;;;26.00;99.90;;;;;;5113532;28;19907;-80
2023/07/13 01:02:22;;;;;;;;;;;26.00;99.90;;;;;;5113099;28;19924;-81
2023/07/13 01:04:48;;;;;;;;;;;25.90;99.90;;;;;;5113400;28;19904;-81
2023/07/13 01:07:14;;;;;;;;;;;26.00;99.90;;;;;;5113383;28;20002;-81
2023/07/13 01:09:40;;;;;;;;;;;25.90;99.90;;;;;;5113772;28;20359;-81
2023/07/13 01:12:06;;;;;;;;;;;25.90;99.90;;;;;;5113340;28;19911;-80
2023/07/13 01:14:32;;;;;;;;;;;25.90;99.90;;;;;;5113382;28;20359;-80
2023/07/13 01:17:00;;;;;;;;;;;25.90;99.90;;;;;;5113176;28;19911;-81
2023/07/13 01:19:29;;;;;;;;;;;25.90;99.90;;;;;;5115424;28;19948;-80
2023/07/13 01:21:55;;;;;;;;;;;25.80;99.90;;;;;;5116991;28;19907;-81
2023/07/13 01:24:21;;;;;;;;;;;25.90;99.90;;;;;;5117252;28;19968;-80
2023/07/13 01:26:47;;;;;;;;;;;25.90;99.90;;;;;;5117451;28;19910;-80
2023/07/13 01:29:13;;;;;;;;;;;25.90;99.90;;;;;;5117279;28;19957;-80
2023/07/13 01:31:38;;;;;;;;;;;25.80;99.90;;;;;;5116803;28;19922;-81
2023/07/13 01:34:04;;;;;;;;;;;25.80;99.90;;;;;;5117026;28;19912;-81
2023/07/13 01:36:31;;;;;;;;;;;25.80;99.90;;;;;;5098556;28;19903;-81
2023/07/13 01:38:56;;;;;;;;;;;25.80;99.90;;;;;;5116967;28;19904;-80
2023/07/13 01:41:22;;;;;;;;;;;25.70;99.90;;;;;;5116911;28;20036;-80
2023/07/13 01:43:48;;;;;;;;;;;25.70;99.90;;;;;;5116716;28;19998;-80
2023/07/13 01:46:14;;;;;;;;;;;25.70;99.90;;;;;;5116869;28;20296;-80
2023/07/13 01:48:39;;;;;;;;;;;25.70;99.90;;;;;;5117196;28;19904;-79
2023/07/13 01:51:05;;;;;;;;;;;25.70;99.90;;;;;;5116595;28;19904;-81
2023/07/13 01:53:31;;;;;;;;;;;25.80;99.90;;;;;;5098369;28;19912;-80
2023/07/13 01:55:57;;;;;;;;;;;25.80;99.90;;;;;;5116587;28;20406;-79
2023/07/13 01:58:29;;;;;;;;;;;25.80;99.90;;;;;;5117078;28;19904;-81
2023/07/13 02:00:54;;;;;;;;;;;25.80;99.90;;;;;;5097429;28;19904;-80
2023/07/13 02:03:20;;;;;;;;;;;25.80;99.90;;;;;;5116919;28;19918;-81
2023/07/13 02:05:46;;;;;;;;;;;25.80;99.90;;;;;;5116570;28;20355;-80
2023/07/13 02:08:12;;;;;;;;;;;25.70;99.90;;;;;;5116253;28;19922;-80
2023/07/13 02:10:38;;;;;;;;;;;25.60;99.90;;;;;;5116247;28;19904;-80
2023/07/13 02:13:05;;;;;;;;;;;25.60;99.90;;;;;;5116088;28;19959;-80
2023/07/13 02:15:31;;;;;;;;;;;25.50;99.90;;;;;;5115934;28;19915;-81
2023/07/13 02:17:58;;;;;;;;;;;25.50;99.90;;;;;;5098072;28;19904;-81
2023/07/13 02:20:24;;;;;;;;;;;25.40;99.90;;;;;;5115978;28;19904;-80
2023/07/13 02:22:50;;;;;;;;;;;25.50;99.90;;;;;;5115889;28;19904;-81
2023/07/13 02:25:16;;;;;;;;;;;25.40;99.90;;;;;;5116449;28;19904;-81
2023/07/13 02:27:42;;;;;;;;;;;25.40;99.90;;;;;;5116061;28;20010;-80
2023/07/13 02:30:08;;;;;;;;;;;25.40;99.90;;;;;;5115065;28;19904;-81
2023/07/13 02:32:35;;;;;;;;;;;25.30;99.90;;;;;;5115350;28;19986;-82
2023/07/13 02:35:01;;;;;;;;;;;25.30;99.90;;;;;;5115758;28;19963;-80
2023/07/13 02:37:26;;;;;;;;;;;25.30;99.90;;;;;;5115750;28;19980;-80
2023/07/13 02:39:52;;;;;;;;;;;25.40;99.90;;;;;;5115969;28;19904;-81
2023/07/13 02:42:18;;;;;;;;;;;25.30;99.90;;;;;;5115826;28;19947;-80
2023/07/13 02:44:44;;;;;;;;;;;25.30;99.90;;;;;;5115466;28;19911;-81
2023/07/13 02:47:10;;;;;;;;;;;25.30;99.90;;;;;;5115247;28;19949;-81
2023/07/13 02:49:35;;;;;;;;;;;25.30;99.90;;;;;;5115929;28;19908;-80
2023/07/13 02:52:02;;;;;;;;;;;25.20;99.90;;;;;;5115359;28;19914;-80
2023/07/13 02:54:28;;;;;;;;;;;25.20;99.90;;;;;;5115298;28;19959;-79
2023/07/13 02:56:53;;;;;;;;;;;25.20;99.90;;;;;;5115300;28;19926;-80
2023/07/13 02:59:19;;;;;;;;;;;25.20;99.90;;;;;;5115748;28;19903;-81
2023/07/13 03:01:45;;;;;;;;;;;25.10;99.90;;;;;;5114742;28;19916;-80
2023/07/13 03:04:12;;;;;;;;;;;25.10;99.90;;;;;;5115573;28;20363;-80
2023/07/13 03:06:37;;;;;;;;;;;25.10;99.90;;;;;;5114982;28;19904;-80
2023/07/13 03:09:03;;;;;;;;;;;25.00;99.90;;;;;;5115306;28;19910;-80
2023/07/13 03:11:29;;;;;;;;;;;25.00;99.90;;;;;;5115345;28;19903;-80
2023/07/13 03:13:55;;;;;;;;;;;25.00;99.90;;;;;;5114896;28;20197;-80
2023/07/13 03:16:21;;;;;;;;;;;25.00;99.90;;;;;;5114811;28;20266;-80
2023/07/13 03:18:47;;;;;;;;;;;25.10;99.90;;;;;;5096491;28;19904;-80
2023/07/13 03:21:14;;;;;;;;;;;25.20;99.90;;;;;;5114801;28;19904;-80
2023/07/13 03:23:40;;;;;;;;;;;25.20;99.90;;;;;;5096614;28;19904;-80
2023/07/13 03:26:07;;;;;;;;;;;25.20;99.90;;;;;;5114851;28;19904;-80
2023/07/13 03:28:33;;;;;;;;;;;25.30;99.90;;;;;;5114945;28;20262;-81
2023/07/13 03:31:04;;;;;;;;;;;25.30;99.90;;;;;;5114657;28;20002;-81
2023/07/13 03:33:30;;;;;;;;;;;25.20;99.90;;;;;;5114674;28;20352;-80
2023/07/13 03:35:56;;;;;;;;;;;25.10;99.90;;;;;;5096515;28;19908;-80
2023/07/13 03:38:22;;;;;;;;;;;25.00;99.90;;;;;;5114516;28;20252;-79
2023/07/13 03:40:47;;;;;;;;;;;25.00;99.90;;;;;;5114477;28;19964;-79
2023/07/13 03:43:13;;;;;;;;;;;25.10;99.90;;;;;;5114806;28;20340;-79
2023/07/13 03:45:39;;;;;;;;;;;25.20;99.90;;;;;;5114198;28;19903;-80
2023/07/13 03:48:05;;;;;;;;;;;25.30;99.90;;;;;;5115269;28;19903;-80
2023/07/13 03:50:31;;;;;;;;;;;25.30;99.90;;;;;;5114517;28;19904;-79
2023/07/13 03:53:00;;;;;;;;;;;25.30;99.90;;;;;;5114510;28;19943;-80
2023/07/13 03:55:26;;;;;;;;;;;25.30;99.90;;;;;;5114463;28;19912;-81
2023/07/13 03:57:54;;;;;;;;;;;25.30;99.90;;;;;;5114843;28;19908;-80
2023/07/13 04:00:20;;;;;;;;;;;25.20;99.90;;;;;;5114664;28;19910;-80
2023/07/13 04:02:47;;;;;;;;;;;25.10;99.90;;;;;;5113895;28;20275;-79
2023/07/13 04:05:13;;;;;;;;;;;25.00;99.90;;;;;;5114379;28;19910;-80
2023/07/13 04:07:39;;;;;;;;;;;24.90;99.90;;;;;;5114687;28;19910;-81
2023/07/13 04:10:05;;;;;;;;;;;24.90;99.90;;;;;;5114039;28;19904;-80
2023/07/13 04:12:31;;;;;;;;;;;24.80;99.90;;;;;;5114527;28;20361;-80
2023/07/13 04:14:57;;;;;;;;;;;24.80;99.90;;;;;;5113871;28;19911;-81
2023/07/13 04:17:23;;;;;;;;;;;24.70;99.90;;;;;;5095472;28;19945;-81
2023/07/13 04:19:48;;;;;;;;;;;24.80;99.90;;;;;;5114394;28;20301;-81
2023/07/13 04:22:14;;;;;;;;;;;24.80;99.90;;;;;;5113722;28;19911;-80
2023/07/13 04:24:40;;;;;;;;;;;24.80;99.90;;;;;;5095433;28;19938;-80
2023/07/13 04:27:06;;;;;;;;;;;24.80;99.90;;;;;;5114037;28;19903;-80
2023/07/13 04:29:32;;;;;;;;;;;24.90;99.90;;;;;;5113915;28;19908;-80
2023/07/13 04:31:58;;;;;;;;;;;25.00;99.90;;;;;;5113533;28;19949;-80
2023/07/13 04:34:24;;;;;;;;;;;24.90;99.90;;;;;;5095320;28;19912;-80
2023/07/13 04:36:50;;;;;;;;;;;25.10;99.90;;;;;;5114274;28;20329;-81
2023/07/13 04:39:16;;;;;;;;;;;25.30;99.90;;;;;;5113708;28;20002;-80
2023/07/13 04:41:42;;;;;;;;;;;25.20;99.90;;;;;;5113693;28;19915;-79
2023/07/13 04:44:08;;;;;;;;;;;25.30;99.90;;;;;;5114059;28;19911;-81
2023/07/13 04:46:34;;;;;;;;;;;25.30;99.90;;;;;;5095458;28;19903;-80
2023/07/13 04:49:00;;;;;;;;;;;25.40;99.90;;;;;;5113700;28;20355;-80
2023/07/13 04:51:26;;;;;;;;;;;25.40;99.90;;;;;;5113741;28;19904;-81
2023/07/13 04:53:52;;;;;;;;;;;25.60;99.90;;;;;;5114452;28;19911;-82
2023/07/13 04:56:19;;;;;;;;;;;25.70;99.90;;;;;;5117904;28;20367;-80
2023/07/13 04:58:45;;;;;;;;;;;25.80;99.90;;;;;;5117576;28;20010;-79
2023/07/13 05:01:11;;;;;;;;;;;25.90;99.90;;;;;;5117455;28;20015;-81
2023/07/13 05:03:37;;;;;;;;;;;26.00;99.90;;;;;;5099181;28;19964;-80
2023/07/13 05:06:04;;;;;;;;;;;26.00;99.90;;;;;;5117496;28;20367;-80
2023/07/13 05:08:30;;;;;;;;;;;25.80;99.90;;;;;;5117833;28;19956;-80
2023/07/13 05:10:56;;;;;;;;;;;25.60;99.90;;;;;;5117401;28;19908;-80
2023/07/13 05:13:22;;;;;;;;;;;25.70;99.90;;;;;;5098764;28;19958;-80
2023/07/13 05:15:55;;;;;;;;;;;25.70;99.90;;;;;;5117481;28;19907;-80
2023/07/13 05:18:20;;;;;;;;;;;25.90;99.90;;;;;;5117608;28;19904;-80
2023/07/13 05:20:46;;;;;;;;;;;26.10;99.90;;;;;;5116940;28;19907;-80
2023/07/13 05:23:12;;;;;;;;;;;26.40;99.90;;;;;;5098564;28;20034;-79
2023/07/13 05:25:38;;;;;;;;;;;26.80;99.90;;;;;;5098535;28;19903;-80
2023/07/13 05:28:03;;;;;;;;;;;27.40;99.90;;;;;;5116818;28;19904;-79
2023/07/13 05:30:29;;;;;;;;;;;27.20;99.90;;;;;;5117095;28;20228;-81
2023/07/13 05:32:55;;;;;;;;;;;27.20;99.90;;;;;;5116658;28;20343;-80
2023/07/13 05:35:21;;;;;;;;;;;27.30;99.90;;;;;;5116705;28;19912;-80
2023/07/13 05:37:47;;;;;;;;;;;27.20;99.90;;;;;;5098451;28;19910;-80
2023/07/13 05:40:12;;;;;;;;;;;27.50;99.90;;;;;;5098291;28;20413;-80
2023/07/13 05:42:38;;;;;;;;;;;27.60;99.90;;;;;;5116832;28;19907;-80
2023/07/13 05:45:05;;;;;;;;;;;27.80;99.90;;;;;;5116913;28;19904;-81
2023/07/13 05:47:30;;;;;;;;;;;27.80;99.90;;;;;;5116257;28;19910;-81
2023/07/13 05:49:56;;;;;;;;;;;28.00;99.90;;;;;;5116398;28;19907;-81
2023/07/13 05:52:22;;;;;;;;;;;28.30;99.90;;;;;;5116332;28;19914;-80
2023/07/13 05:54:48;;;;;;;;;;;28.80;99.90;;;;;;5097905;28;20014;-81
2023/07/13 05:57:14;;;;;;;;;;;29.40;99.90;;;;;;5097718;28;19903;-80
2023/07/13 05:59:39;;;;;;;;;;;30.30;99.90;;;;;;5097665;28;19904;-81
2023/07/13 06:02:05;;;;;;;;;;;31.60;99.90;;;;;;5115761;28;19976;-80
2023/07/13 06:04:31;;;;;;;;;;;32.70;99.90;;;;;;5115778;28;20275;-81
2023/07/13 06:06:57;;;;;;;;;;;33.00;99.90;;;;;;5114977;28;19903;-81
2023/07/13 06:09:23;;;;;;;;;;;33.50;99.90;;;;;;5116058;28;20344;-79
2023/07/13 06:11:48;;;;;;;;;;;33.50;99.90;;;;;;5115810;28;19911;-79
2023/07/13 06:14:14;;;;;;;;;;;34.30;99.90;;;;;;5115639;28;19911;-80
2023/07/13 06:16:41;;;;;;;;;;;35.80;99.90;;;;;;5115568;28;19903;-80
2023/07/13 06:19:07;;;;;;;;;;;36.80;99.90;;;;;;5115619;28;19979;-81
2023/07/13 06:21:33;;;;;;;;;;;36.60;99.90;;;;;;5115509;28;20283;-80
2023/07/13 06:23:58;;;;;;;;;;;37.80;99.90;;;;;;5115985;28;20360;-80
2023/07/13 06:26:24;;;;;;;;;;;38.60;99.90;;;;;;5115524;28;19903;-79
2023/07/13 06:28:50;;;;;;;;;;;38.60;99.90;;;;;;5116154;28;19990;-80
2023/07/13 06:31:16;;;;;;;;;;;38.50;99.90;;;;;;5115491;28;19987;-80
2023/07/13 06:33:43;;;;;;;;;;;37.10;99.90;;;;;;5116641;28;19919;-78
2023/07/13 06:36:09;;;;;;;;;;;36.90;99.90;;;;;;5096962;28;19903;-81
2023/07/13 06:38:36;;;;;;;;;;;36.10;99.90;;;;;;5115070;28;19994;-79
2023/07/13 06:41:01;;;;;;;;;;;36.60;99.90;;;;;;5115622;28;20340;-80
2023/07/13 06:43:29;;;;;;;;;;;37.00;99.90;;;;;;5115117;28;19903;-80
2023/07/13 06:45:55;;;;;;;;;;;38.00;99.90;;;;;;5115094;28;19904;-80
2023/07/13 06:48:21;;;;;;;;;;;38.90;99.90;;;;;;5115088;28;19904;-80
2023/07/13 06:50:48;;;;;;;;;;;38.40;99.90;;;;;;5115177;28;19915;-80
2023/07/13 06:53:14;;;;;;;;;;;39.00;99.90;;;;;;5114902;28;19911;-80
2023/07/13 06:55:40;;;;;;;;;;;39.60;99.90;;;;;;5114790;28;19908;-80
2023/07/13 06:58:06;;;;;;;;;;;40.10;99.90;;;;;;5114785;28;19904;-79
2023/07/13 07:00:32;;;;;;;;;;;40.20;99.90;;;;;;5096299;28;19969;-79
2023/07/13 07:02:58;;;;;;;;;;;39.60;99.90;;;;;;5114099;28;20027;-79
2023/07/13 07:05:23;;;;;;;;;;;38.90;99.90;;;;;;5114453;28;19938;-79
2023/07/13 07:07:49;;;;;;;;;;;40.10;99.90;;;;;;5114897;28;20008;-80
2023/07/13 07:10:15;;;;;;;;;;;39.80;99.90;;;;;;5114554;28;19904;-79
2023/07/13 07:12:41;;;;;;;;;;;41.00;99.90;;;;;;5115182;28;19911;-78
2023/07/13 07:15:07;;;;;;;;;;;41.90;99.90;;;;;;5114321;28;19919;-79
2023/07/13 07:17:33;;;;;;;;;;;41.70;99.90;;;;;;5113811;28;20267;-80
2023/07/13 07:19:59;;;;;;;;;;;41.20;99.90;;;;;;5114248;28;19907;-79
2023/07/13 07:22:27;;;;;;;;;;;40.20;99.90;;;;;;5114126;28;20377;-79
2023/07/13 07:24:53;;;;;;;;;;;39.90;99.90;;;;;;5114839;28;19904;-80
2023/07/13 07:27:19;;;;;;;;;;;39.00;99.90;;;;;;5114292;28;19904;-79
2023/07/13 07:29:45;;;;;;;;;;;38.00;99.90;;;;;;5114099;28;19977;-80
2023/07/13 07:32:11;;;;;;;;;;;37.70;99.90;;;;;;5114048;28;19903;-80
2023/07/13 07:34:40;;;;;;;;;;;36.50;99.90;;;;;;5114448;28;19953;-80
2023/07/13 07:37:05;;;;;;;;;;;35.90;99.90;;;;;;5114270;28;20344;-81
2023/07/13 07:39:31;;;;;;;;;;;35.10;99.90;;;;;;5114230;28;19923;-81
2023/07/13 07:41:57;;;;;;;;;;;35.20;99.90;;;;;;5113712;28;19910;-80
2023/07/13 07:44:23;;;;;;;;;;;35.80;99.90;;;;;;5113942;28;19990;-81
2023/07/13 07:46:49;;;;;;;;;;;35.40;99.90;;;;;;5113556;28;20003;-80
2023/07/13 07:49:15;;;;;;;;;;;35.70;99.90;;;;;;5113987;28;19991;-81
2023/07/13 07:51:41;;;;;;;;;;;36.10;99.90;;;;;;5113343;28;19965;-80
2023/07/13 07:54:07;;;;;;;;;;;35.70;99.90;;;;;;5113422;28;19911;-81
2023/07/13 07:56:33;;;;;;;;;;;35.10;99.90;;;;;;5113641;28;20371;-80
2023/07/13 07:58:58;;;;;;;;;;;34.70;99.90;;;;;;5113359;28;19904;-79
2023/07/13 08:01:24;;;;;;;;;;;34.50;99.90;;;;;;5112990;28;20355;-81
2023/07/13 08:03:50;;;;;;;;;;;34.10;99.90;;;;;;5113457;28;19915;-81
2023/07/13 08:06:16;;;;;;;;;;;34.50;99.90;;;;;;5113630;28;19903;-80
2023/07/13 08:08:43;;;;;;;;;;;35.00;99.90;;;;;;5113337;28;20394;-81
2023/07/13 08:11:10;;;;;;;;;;;35.50;99.90;;;;;;5094859;28;19994;-80
2023/07/13 08:13:36;;;;;;;;;;;35.70;99.90;;;;;;5113345;28;19908;-79
2023/07/13 08:16:03;;;;;;;;;;;35.80;99.90;;;;;;5113133;28;20007;-80
2023/07/13 08:18:29;;;;;;;;;;;35.30;99.90;;;;;;5095060;28;19904;-81
2023/07/13 08:20:56;;;;;;;;;;;35.20;99.90;;;;;;5113330;28;20340;-80
2023/07/13 08:23:23;;;;;;;;;;;35.10;99.90;;;;;;5112925;28;19948;-79
2023/07/13 08:25:52;;;;;;;;;;;35.40;99.90;;;;;;5113063;28;19904;-80
2023/07/13 08:28:20;;;;;;;;;;;35.20;99.90;;;;;;5112621;28;19907;-79
2023/07/13 08:30:48;;;;;;;;;;;35.30;99.90;;;;;;5112821;28;19904;-80
2023/07/13 08:33:18;;;;;;;;;;;35.40;99.90;;;;;;5112574;28;20297;-80
2023/07/13 08:35:48;;;;;;;;;;;35.30;99.90;;;;;;5113327;28;19908;-80
2023/07/13 08:38:14;;;;;;;;;;;34.80;99.90;;;;;;5112923;28;20373;-81
2023/07/13 08:40:40;;;;;;;;;;;35.00;99.90;;;;;;5113609;28;19941;-80
2023/07/13 08:43:07;;;;;;;;;;;34.70;99.90;;;;;;5112735;28;19915;-80
2023/07/13 08:45:59;;;;;;;;;;;34.90;99.90;;;;;;5112824;28;19908;-80
2023/07/13 08:48:41;;;;;;;;;;;33.70;99.90;;;;;;5030187;28;20238;-80
2023/07/13 08:51:36;;;;;;;;;;;33.40;99.90;;;;;;5030982;28;19905;-80
2023/07/13 08:54:05;;;;;;;;;;;34.00;99.90;;;;;;5021031;28;20353;-80
2023/07/13 08:56:31;;;;;;;;;;;34.60;99.90;;;;;;5030389;28;19996;-80
2023/07/13 08:58:58;;;;;;;;;;;33.90;99.90;;;;;;5013613;28;19912;-81
2023/07/13 09:01:48;;;;;;;;;;;33.60;99.90;;;;;;5013598;28;19916;-79
2023/07/13 09:04:24;;;;;;;;;;;33.80;99.90;;;;;;5030882;28;20227;-81
2023/07/13 09:06:50;;;;;;;;;;;33.70;99.90;;;;;;5030134;28;19964;-80
2023/07/13 09:09:23;;;;;;;;;;;33.70;99.90;;;;;;5013403;28;19905;-80
2023/07/13 09:11:52;;;;;;;;;;;34.00;99.90;;;;;;5030049;28;20384;-79
2023/07/13 09:14:36;;;;;;;;;;;33.80;99.90;;;;;;5030324;28;20111;-82
2023/07/13 09:17:04;;;;;;;;;;;33.60;99.90;;;;;;5030210;28;20316;-80
2023/07/13 09:19:33;;;;;;;;;;;33.70;99.90;;;;;;5030698;28;19905;-79
2023/07/13 09:21:59;;;;;;;;;;;33.40;99.90;;;;;;5029798;28;19952;-80
2023/07/13 09:24:31;;;;;;;;;;;33.70;99.90;;;;;;5037409;28;19911;-79
2023/07/13 09:26:57;;;;;;;;;;;33.50;99.90;;;;;;5071999;28;19910;-78
2023/07/13 09:29:32;;;;;;;;;;;33.80;99.90;;;;;;5072127;28;19908;-78
2023/07/13 09:32:01;;;;;;;;;;;34.00;99.90;;;;;;5071868;28;19905;-80
2023/07/13 09:34:30;;;;;;;;;;;33.70;99.90;;;;;;5072031;28;19958;-79
2023/07/13 09:36:56;;;;;;;;;;;33.50;99.90;;;;;;5072227;28;20346;-79
2023/07/13 09:39:22;;;;;;;;;;;33.50;99.90;;;;;;5072346;28;19991;-79
2023/07/13 09:42:12;;;;;;;;;;;33.50;99.90;;;;;;5075933;28;19911;-80
2023/07/13 09:44:38;;;;;;;;;;;33.20;99.90;;;;;;5075803;28;19908;-80
2023/07/13 09:47:18;;;;;;;;;;;33.30;99.90;;;;;;5075276;28;19974;-80
2023/07/13 09:49:44;;;;;;;;;;;33.00;99.90;;;;;;5075605;28;19912;-78
2023/07/13 09:52:15;;;;;;;;;;;33.00;99.90;;;;;;5090244;28;19904;-80
2023/07/13 09:54:44;;;;;;;;;;;32.90;99.90;;;;;;5095762;28;19912;-80
2023/07/13 09:57:15;;;;;;;;;;;32.90;99.90;;;;;;5095459;28;19908;-79
2023/07/13 09:59:46;;;;;;;;;;;32.80;99.90;;;;;;5095548;28;19926;-80
2023/07/13 10:02:35;;;;;;;;;;;32.80;99.90;;;;;;5107022;28;19916;-80
2023/07/13 10:05:05;;;;;;;;;;;33.10;99.90;;;;;;5116053;28;20416;-79
2023/07/13 10:07:32;;;;;;;;;;;33.10;99.90;;;;;;5115832;28;19904;-80
2023/07/13 10:10:02;;;;;;;;;;;32.90;99.90;;;;;;5115754;28;19957;-80
2023/07/13 10:12:30;;;;;;;;;;;32.70;99.90;;;;;;5116130;28;19904;-79
2023/07/13 10:15:00;;;;;;;;;;;32.70;99.90;;;;;;5115945;28;19918;-80
2023/07/13 10:17:32;;;;;;;;;;;32.70;99.90;;;;;;5116456;28;19904;-79
2023/07/13 10:20:04;;;;;;;;;;;32.30;99.90;;;;;;5097561;28;20245;-79
2023/07/13 10:22:41;;;;;;;;;;;32.10;99.90;;;;;;5115616;28;19903;-80
2023/07/13 10:25:15;;;;;;;;;;;32.00;99.90;;;;;;5115604;28;19904;-80
2023/07/13 10:27:41;;;;;;;;;;;31.80;99.90;;;;;;5116002;28;19904;-79
2023/07/13 10:30:19;;;;;;;;;;;31.80;99.90;;;;;;5115785;28;19955;-79
2023/07/13 10:32:46;;;;;;;;;;;32.10;99.90;;;;;;5115720;28;19912;-81
2023/07/13 10:35:17;;;;;;;;;;;32.00;99.90;;;;;;5098021;28;19998;-80
2023/07/13 10:37:52;;;;;;;;;;;32.20;99.90;;;;;;5115268;28;19953;-79
2023/07/13 10:40:44;;;;;;;;;;;32.00;99.90;;;;;;5115330;28;19904;-79
2023/07/13 10:43:18;;;;;;;;;;;32.00;99.90;;;;;;5111374;28;20001;-80
2023/07/13 10:45:46;;;;;;;;;;;32.00;99.90;;;;;;5115903;28;19991;-80
2023/07/13 10:48:13;;;;;;;;;;;32.00;99.90;;;;;;5115300;28;19903;-80
2023/07/13 10:50:41;;;;;;;;;;;32.20;99.90;;;;;;5097152;28;20310;-80
2023/07/13 10:53:20;;;;;;;;;;;32.20;99.90;;;;;;5114983;28;19911;-80
2023/07/13 10:55:46;;;;;;;;;;;32.00;99.90;;;;;;5115217;28;19980;-80
2023/07/13 10:58:19;;;;;;;;;;;32.30;99.90;;;;;;5115221;28;20403;-80
2023/07/13 11:00:56;;;;;;;;;;;32.20;99.90;;;;;;5114939;28;19904;-80
2023/07/13 11:03:22;;;;;;;;;;;32.20;99.90;;;;;;5074200;28;19942;-79
2023/07/13 11:05:50;;;;;;;;;;;32.30;99.90;;;;;;5074912;28;19905;-80
2023/07/13 11:08:20;;;;;;;;;;;32.50;99.90;;;;;;5074238;28;20289;-78
2023/07/13 11:10:51;;;;;;;;;;;32.50;99.90;;;;;;5074347;28;19950;-80
2023/07/13 11:13:35;;;;;;;;;;;32.80;99.90;;;;;;5074612;28;19904;-79
2023/07/13 11:16:01;;;;;;;;;;;32.70;99.90;;;;;;5074350;28;19915;-80
2023/07/13 11:18:27;;;;;;;;;;;32.30;99.90;;;;;;5074058;28;19998;-79
2023/07/13 11:21:12;;;;;;;;;;;32.40;99.90;;;;;;5073971;28;19904;-82
2023/07/13 11:23:41;;;;;;;;;;;32.30;99.90;;;;;;5075027;28;20352;-80
2023/07/13 11:26:27;;;;;;;;;;;32.20;99.90;;;;;;5073988;28;19904;-79
2023/07/13 11:28:53;;;;;;;;;;;32.10;99.90;;;;;;5073539;28;20331;-78
2023/07/13 11:31:22;;;;;;;;;;;32.40;99.90;;;;;;5073395;28;19905;-78
2023/07/13 11:33:48;;;;;;;;;;;32.30;99.90;;;;;;5073713;28;19912;-79
2023/07/13 11:36:16;;;;;;;;;;;32.10;99.90;;;;;;5073913;28;20042;-79
2023/07/13 11:38:43;;;;;;;;;;;32.40;99.90;;;;;;5073610;28;20018;-80
2023/07/13 11:41:11;;;;;;;;;;;32.40;99.90;;;;;;5073907;28;19931;-79
2023/07/13 11:43:38;;;;;;;;;;;32.50;99.90;;;;;;5073915;28;19904;-79
2023/07/13 11:46:13;;;;;;;;;;;32.30;99.90;;;;;;5074199;28;19915;-80
2023/07/13 11:48:40;;;;;;;;;;;32.70;99.90;;;;;;5073746;28;19904;-81
2023/07/13 11:51:06;;;;;;;;;;;32.70;99.90;;;;;;5072284;28;20383;-79
2023/07/13 11:53:38;;;;;;;;;;;32.60;99.90;;;;;;5073694;28;19904;-80
2023/07/13 11:56:05;;;;;;;;;;;32.50;99.90;;;;;;5073738;28;19965;-79
2023/07/13 11:58:30;;;;;;;;;;;32.70;99.90;;;;;;5073266;28;19946;-79
2023/07/13 12:00:58;;;;;;;;;;;32.50;99.90;;;;;;5075082;28;20305;-80
2023/07/13 12:03:25;;;;;;;;;;;32.40;99.90;;;;;;5113670;28;19908;-79
2023/07/13 12:06:19;;;;;;;;;;;32.20;99.90;;;;;;5114240;28;19910;-80
2023/07/13 12:08:45;;;;;;;;;;;32.30;99.90;;;;;;5095378;28;20272;-80
2023/07/13 12:11:15;;;;;;;;;;;32.20;99.90;;;;;;5114038;28;19903;-80
2023/07/13 12:13:41;;;;;;;;;;;32.40;99.90;;;;;;5113396;28;19915;-79
2023/07/13 12:16:11;;;;;;;;;;;32.40;99.90;;;;;;5114442;28;20260;-80
2023/07/13 12:18:37;;;;;;;;;;;32.40;99.90;;;;;;5113411;28;19995;-80
2023/07/13 12:21:04;;;;;;;;;;;32.30;99.90;;;;;;5095311;28;19992;-79
2023/07/13 12:23:30;;;;;;;;;;;32.40;99.90;;;;;;5113672;28;20241;-80
2023/07/13 12:25:57;;;;;;;;;;;32.40;99.90;;;;;;5113949;28;19907;-80
2023/07/13 12:28:30;;;;;;;;;;;32.70;99.90;;;;;;5113475;28;20243;-80
2023/07/13 12:31:03;;;;;;;;;;;32.90;99.90;;;;;;5113689;28;20335;-78
2023/07/13 12:33:32;;;;;;;;;;;33.10;99.90;;;;;;5094957;28;19910;-80
2023/07/13 12:36:01;;;;;;;;;;;33.00;99.90;;;;;;5113501;28;20306;-79
2023/07/13 12:38:27;;;;;;;;;;;32.80;99.90;;;;;;5113645;28;20301;-78
2023/07/13 12:40:53;;;;;;;;;;;33.00;99.90;;;;;;5113382;28;20001;-79
2023/07/13 12:43:22;;;;;;;;;;;32.80;99.90;;;;;;5113881;28;19998;-79
2023/07/13 12:45:59;;;;;;;;;;;32.90;99.90;;;;;;5113274;28;19903;-80
2023/07/13 12:48:25;;;;;;;;;;;32.60;99.90;;;;;;5113216;28;19911;-79
2023/07/13 12:50:53;;;;;;;;;;;32.20;99.90;;;;;;5113663;28;19903;-79
2023/07/13 12:53:20;;;;;;;;;;;32.50;99.90;;;;;;5113562;28;19942;-80
2023/07/13 12:55:47;;;;;;;;;;;32.70;99.90;;;;;;5113932;28;19912;-80
2023/07/13 12:58:25;;;;;;;;;;;32.70;99.90;;;;;;5113229;28;19960;-80
2023/07/13 13:00:53;;;;;;;;;;;32.50;99.90;;;;;;5113598;28;19904;-81
2023/07/13 13:03:25;;;;;;;;;;;32.30;99.90;;;;;;5113318;28;20352;-79
2023/07/13 13:05:56;;;;;;;;;;;32.50;99.90;;;;;;5113119;28;19903;-78
2023/07/13 13:08:22;;;;;;;;;;;32.60;99.90;;;;;;5113793;28;20367;-80
2023/07/13 13:10:48;;;;;;;;;;;32.60;99.90;;;;;;5113214;28;19910;-78
2023/07/13 13:13:14;;;;;;;;;;;32.40;99.90;;;;;;5113472;28;19952;-78
2023/07/13 13:15:40;;;;;;;;;;;32.50;99.90;;;;;;5115059;28;20006;-79
2023/07/13 13:18:13;;;;;;;;;;;32.50;99.90;;;;;;5116945;28;19911;-78
2023/07/13 13:20:39;;;;;;;;;;;32.50;99.90;;;;;;5117214;28;19990;-79
2023/07/13 13:23:05;;;;;;;;;;;32.40;99.90;;;;;;5116849;28;19946;-79
2023/07/13 13:25:30;;;;;;;;;;;32.30;99.90;;;;;;5116718;28;19904;-79
2023/07/13 13:27:56;;;;;;;;;;;32.10;99.90;;;;;;5116738;28;19904;-79
2023/07/13 13:30:22;;;;;;;;;;;32.30;99.90;;;;;;5116936;28;19926;-79
2023/07/13 13:32:48;;;;;;;;;;;32.30;99.90;;;;;;5116559;28;20049;-78
2023/07/13 13:35:18;;;;;;;;;;;32.50;99.90;;;;;;5116496;28;19970;-78
2023/07/13 13:37:44;;;;;;;;;;;32.50;99.90;;;;;;5116424;28;20402;-78
2023/07/13 13:40:15;;;;;;;;;;;32.30;99.90;;;;;;5116803;28;19904;-78
2023/07/13 13:42:40;;;;;;;;;;;32.50;99.90;;;;;;5116566;28;20457;-78
2023/07/13 13:45:08;;;;;;;;;;;32.40;99.90;;;;;;5116849;28;19939;-79
2023/07/13 13:47:35;;;;;;;;;;;32.40;99.90;;;;;;5116305;28;19931;-78
2023/07/13 13:50:02;;;;;;;;;;;32.30;99.90;;;;;;5098620;28;20271;-78
2023/07/13 13:52:28;;;;;;;;;;;32.40;99.90;;;;;;5116264;28;19904;-79
2023/07/13 13:54:55;;;;;;;;;;;32.20;99.90;;;;;;5116182;28;19937;-78
2023/07/13 13:57:25;;;;;;;;;;;32.30;99.90;;;;;;5116795;28;19907;-79
2023/07/13 13:59:52;;;;;;;;;;;32.30;99.90;;;;;;5097793;28;19904;-80
2023/07/13 14:02:23;;;;;;;;;;;32.30;99.90;;;;;;5115699;28;19945;-79
2023/07/13 14:04:59;;;;;;;;;;;32.20;99.90;;;;;;5116436;28;20034;-78
2023/07/13 14:07:25;;;;;;;;;;;32.20;99.90;;;;;;5116023;28;19912;-79
2023/07/13 14:09:56;;;;;;;;;;;32.00;99.90;;;;;;5115762;28;19917;-79
2023/07/13 14:12:24;;;;;;;;;;;31.80;99.90;;;;;;5115932;28;20420;-78
2023/07/13 14:14:50;;;;;;;;;;;31.90;99.90;;;;;;5116367;28;19915;-77
2023/07/13 14:17:24;;;;;;;;;;;31.80;99.90;;;;;;5115767;28;19904;-78
2023/07/13 14:19:56;;;;;;;;;;;31.90;99.90;;;;;;5116364;28;19998;-78